Nova Esperanca, Brazil
Current Conditions -  °F | °C
As of 4:25 PM on Monday 22 Dec 2014 (Local Time) from SBMG Reporting Station
Light Rain Light Rain  
Wind Chill: 70°   Ceiling: 300
Heat Index: 70°   Visibility: 6mi
Dew Point: 70°   Wind: 9mph
Humidity: 100%   Direction: 270°W
Pressure: 29.83"   Gusts: NA
Location:  23.18°S, 52.2°W
Report Text: SBMG 221825Z 27008KT 9000 4000W -RA BCFG BKN003 SCT009 OVC024 21/21 Q1010 RERA
Loading
Personal Weather Stations






























Interactive Weather Map New forecast layout! Learn more

10-Day Weather Forecast

Advertisements
Track Severe Weather on mobile